<?xml version="1.0" encoding="UTF-8" standalone="no" ?>
<gpx xmlns="http://www.topografix.com/GPX/1/1" xmlns:xsi="http://www.w3.org/2001/XMLSchema-instance" xsi:schemaLocation="http://www.topografix.com/GPX/1/1 http://www.topografix.com/GPX/1/1/gpx.xsd" version="1.1" creator="VisuGPX - https://www.visugpx.com">
  <metadata>
    <name>St Marc Jaumegarde - Bibemus</name>
  </metadata>
  <trk>
    <name><![CDATA[St Marc - Bibemus]]></name>
    <trkseg>
      <trkpt lat="43.54607" lon="5.51994">
        <ele>391</ele>
        <time>2020-01-14T13:08:36Z</time>
      </trkpt>
      <trkpt lat="43.54601" lon="5.51984">
        <ele>386</ele>
        <time>2020-01-14T13:08:51Z</time>
      </trkpt>
      <trkpt lat="43.54601" lon="5.51971">
        <ele>383</ele>
        <time>2020-01-14T13:08:57Z</time>
      </trkpt>
      <trkpt lat="43.54604" lon="5.51958">
        <ele>382</ele>
        <time>2020-01-14T13:09:06Z</time>
      </trkpt>
      <trkpt lat="43.54606" lon="5.51945">
        <ele>382</ele>
        <time>2020-01-14T13:09:14Z</time>
      </trkpt>
      <trkpt lat="43.54609" lon="5.51932">
        <ele>382</ele>
        <time>2020-01-14T13:09:23Z</time>
      </trkpt>
      <trkpt lat="43.54609" lon="5.51918">
        <ele>382</ele>
        <time>2020-01-14T13:09:30Z</time>
      </trkpt>
      <trkpt lat="43.54612" lon="5.51905">
        <ele>382</ele>
        <time>2020-01-14T13:09:38Z</time>
      </trkpt>
      <trkpt lat="43.54615" lon="5.51893">
        <ele>386</ele>
        <time>2020-01-14T13:09:48Z</time>
      </trkpt>
      <trkpt lat="43.54613" lon="5.5188">
        <ele>384</ele>
        <time>2020-01-14T13:10:02Z</time>
      </trkpt>
      <trkpt lat="43.54613" lon="5.51865">
        <ele>383</ele>
        <time>2020-01-14T13:10:12Z</time>
      </trkpt>
      <trkpt lat="43.54611" lon="5.5185">
        <ele>385</ele>
        <time>2020-01-14T13:10:30Z</time>
      </trkpt>
      <trkpt lat="43.54609" lon="5.51837">
        <ele>384</ele>
        <time>2020-01-14T13:10:51Z</time>
      </trkpt>
      <trkpt lat="43.54607" lon="5.51824">
        <ele>384</ele>
        <time>2020-01-14T13:11:00Z</time>
      </trkpt>
      <trkpt lat="43.54605" lon="5.51811">
        <ele>384</ele>
        <time>2020-01-14T13:11:08Z</time>
      </trkpt>
      <trkpt lat="43.54606" lon="5.51798">
        <ele>387</ele>
        <time>2020-01-14T13:11:17Z</time>
      </trkpt>
      <trkpt lat="43.54607" lon="5.51785">
        <ele>386</ele>
        <time>2020-01-14T13:11:26Z</time>
      </trkpt>
      <trkpt lat="43.5461" lon="5.51772">
        <ele>386</ele>
        <time>2020-01-14T13:11:34Z</time>
      </trkpt>
      <trkpt lat="43.54609" lon="5.5176">
        <ele>387</ele>
        <time>2020-01-14T13:11:42Z</time>
      </trkpt>
      <trkpt lat="43.5461" lon="5.51746">
        <ele>386</ele>
        <time>2020-01-14T13:11:51Z</time>
      </trkpt>
      <trkpt lat="43.54611" lon="5.51734">
        <ele>386</ele>
        <time>2020-01-14T13:11:59Z</time>
      </trkpt>
      <trkpt lat="43.54611" lon="5.5172">
        <ele>385</ele>
        <time>2020-01-14T13:12:09Z</time>
      </trkpt>
      <trkpt lat="43.54612" lon="5.51706">
        <ele>385</ele>
        <time>2020-01-14T13:12:19Z</time>
      </trkpt>
      <trkpt lat="43.54612" lon="5.51693">
        <ele>385</ele>
        <time>2020-01-14T13:12:29Z</time>
      </trkpt>
      <trkpt lat="43.54612" lon="5.5168">
        <ele>384</ele>
        <time>2020-01-14T13:12:39Z</time>
      </trkpt>
      <trkpt lat="43.54613" lon="5.51666">
        <ele>384</ele>
        <time>2020-01-14T13:12:49Z</time>
      </trkpt>
      <trkpt lat="43.54612" lon="5.51653">
        <ele>383</ele>
        <time>2020-01-14T13:12:59Z</time>
      </trkpt>
      <trkpt lat="43.54612" lon="5.51641">
        <ele>384</ele>
        <time>2020-01-14T13:13:09Z</time>
      </trkpt>
      <trkpt lat="43.54612" lon="5.51628">
        <ele>383</ele>
        <time>2020-01-14T13:13:18Z</time>
      </trkpt>
      <trkpt lat="43.5461" lon="5.51616">
        <ele>383</ele>
        <time>2020-01-14T13:13:28Z</time>
      </trkpt>
      <trkpt lat="43.54607" lon="5.51603">
        <ele>383</ele>
        <time>2020-01-14T13:13:39Z</time>
      </trkpt>
      <trkpt lat="43.54604" lon="5.5159">
        <ele>383</ele>
        <time>2020-01-14T13:13:49Z</time>
      </trkpt>
      <trkpt lat="43.546" lon="5.51578">
        <ele>381</ele>
        <time>2020-01-14T13:14:02Z</time>
      </trkpt>
      <trkpt lat="43.54597" lon="5.51565">
        <ele>381</ele>
        <time>2020-01-14T13:14:13Z</time>
      </trkpt>
      <trkpt lat="43.54594" lon="5.51553">
        <ele>378</ele>
        <time>2020-01-14T13:14:24Z</time>
      </trkpt>
      <trkpt lat="43.54592" lon="5.51541">
        <ele>379</ele>
        <time>2020-01-14T13:14:38Z</time>
      </trkpt>
      <trkpt lat="43.54589" lon="5.51529">
        <ele>378</ele>
        <time>2020-01-14T13:14:51Z</time>
      </trkpt>
      <trkpt lat="43.54588" lon="5.51515">
        <ele>377</ele>
        <time>2020-01-14T13:15:01Z</time>
      </trkpt>
      <trkpt lat="43.54582" lon="5.51505">
        <ele>375</ele>
        <time>2020-01-14T13:15:11Z</time>
      </trkpt>
      <trkpt lat="43.54577" lon="5.51493">
        <ele>372</ele>
        <time>2020-01-14T13:15:22Z</time>
      </trkpt>
      <trkpt lat="43.54573" lon="5.51481">
        <ele>370</ele>
        <time>2020-01-14T13:15:32Z</time>
      </trkpt>
      <trkpt lat="43.54567" lon="5.5147">
        <ele>370</ele>
        <time>2020-01-14T13:15:41Z</time>
      </trkpt>
      <trkpt lat="43.54559" lon="5.51463">
        <ele>371</ele>
        <time>2020-01-14T13:15:49Z</time>
      </trkpt>
      <trkpt lat="43.54551" lon="5.51456">
        <ele>370</ele>
        <time>2020-01-14T13:15:57Z</time>
      </trkpt>
      <trkpt lat="43.54549" lon="5.51444">
        <ele>368</ele>
        <time>2020-01-14T13:16:05Z</time>
      </trkpt>
      <trkpt lat="43.54542" lon="5.51435">
        <ele>367</ele>
        <time>2020-01-14T13:16:13Z</time>
      </trkpt>
      <trkpt lat="43.54534" lon="5.51429">
        <ele>368</ele>
        <time>2020-01-14T13:16:22Z</time>
      </trkpt>
      <trkpt lat="43.54527" lon="5.5142">
        <ele>367</ele>
        <time>2020-01-14T13:16:30Z</time>
      </trkpt>
      <trkpt lat="43.54523" lon="5.51408">
        <ele>366</ele>
        <time>2020-01-14T13:16:38Z</time>
      </trkpt>
      <trkpt lat="43.54519" lon="5.51396">
        <ele>366</ele>
        <time>2020-01-14T13:16:46Z</time>
      </trkpt>
      <trkpt lat="43.54514" lon="5.51385">
        <ele>365</ele>
        <time>2020-01-14T13:16:55Z</time>
      </trkpt>
      <trkpt lat="43.54509" lon="5.51372">
        <ele>365</ele>
        <time>2020-01-14T13:17:03Z</time>
      </trkpt>
      <trkpt lat="43.54505" lon="5.51361">
        <ele>365</ele>
        <time>2020-01-14T13:17:12Z</time>
      </trkpt>
      <trkpt lat="43.54502" lon="5.51347">
        <ele>365</ele>
        <time>2020-01-14T13:17:21Z</time>
      </trkpt>
      <trkpt lat="43.54499" lon="5.51335">
        <ele>364</ele>
        <time>2020-01-14T13:17:29Z</time>
      </trkpt>
      <trkpt lat="43.54494" lon="5.51324">
        <ele>363</ele>
        <time>2020-01-14T13:17:39Z</time>
      </trkpt>
      <trkpt lat="43.54488" lon="5.51315">
        <ele>362</ele>
        <time>2020-01-14T13:17:48Z</time>
      </trkpt>
      <trkpt lat="43.54482" lon="5.51305">
        <ele>363</ele>
        <time>2020-01-14T13:17:58Z</time>
      </trkpt>
      <trkpt lat="43.54476" lon="5.51295">
        <ele>362</ele>
        <time>2020-01-14T13:18:10Z</time>
      </trkpt>
      <trkpt lat="43.5447" lon="5.51284">
        <ele>361</ele>
        <time>2020-01-14T13:18:21Z</time>
      </trkpt>
      <trkpt lat="43.54465" lon="5.51273">
        <ele>358</ele>
        <time>2020-01-14T13:18:30Z</time>
      </trkpt>
      <trkpt lat="43.54461" lon="5.51261">
        <ele>357</ele>
        <time>2020-01-14T13:18:40Z</time>
      </trkpt>
      <trkpt lat="43.54455" lon="5.5125">
        <ele>358</ele>
        <time>2020-01-14T13:18:49Z</time>
      </trkpt>
      <trkpt lat="43.5445" lon="5.51238">
        <ele>358</ele>
        <time>2020-01-14T13:18:59Z</time>
      </trkpt>
      <trkpt lat="43.54445" lon="5.51227">
        <ele>356</ele>
        <time>2020-01-14T13:19:08Z</time>
      </trkpt>
      <trkpt lat="43.54439" lon="5.51215">
        <ele>355</ele>
        <time>2020-01-14T13:19:18Z</time>
      </trkpt>
      <trkpt lat="43.54434" lon="5.51204">
        <ele>357</ele>
        <time>2020-01-14T13:19:26Z</time>
      </trkpt>
      <trkpt lat="43.54429" lon="5.51193">
        <ele>359</ele>
        <time>2020-01-14T13:19:35Z</time>
      </trkpt>
      <trkpt lat="43.54424" lon="5.51182">
        <ele>359</ele>
        <time>2020-01-14T13:19:43Z</time>
      </trkpt>
      <trkpt lat="43.54418" lon="5.51171">
        <ele>361</ele>
        <time>2020-01-14T13:19:53Z</time>
      </trkpt>
      <trkpt lat="43.54413" lon="5.5116">
        <ele>361</ele>
        <time>2020-01-14T13:20:02Z</time>
      </trkpt>
      <trkpt lat="43.54405" lon="5.51155">
        <ele>359</ele>
        <time>2020-01-14T13:20:11Z</time>
      </trkpt>
      <trkpt lat="43.54398" lon="5.51164">
        <ele>360</ele>
        <time>2020-01-14T13:20:23Z</time>
      </trkpt>
      <trkpt lat="43.54392" lon="5.51174">
        <ele>360</ele>
        <time>2020-01-14T13:20:32Z</time>
      </trkpt>
      <trkpt lat="43.54383" lon="5.51178">
        <ele>357</ele>
        <time>2020-01-14T13:20:40Z</time>
      </trkpt>
      <trkpt lat="43.54374" lon="5.51182">
        <ele>356</ele>
        <time>2020-01-14T13:20:48Z</time>
      </trkpt>
      <trkpt lat="43.54364" lon="5.51181">
        <ele>354</ele>
        <time>2020-01-14T13:21:00Z</time>
      </trkpt>
      <trkpt lat="43.54354" lon="5.5118">
        <ele>354</ele>
        <time>2020-01-14T13:21:14Z</time>
      </trkpt>
      <trkpt lat="43.54345" lon="5.51178">
        <ele>354</ele>
        <time>2020-01-14T13:21:24Z</time>
      </trkpt>
      <trkpt lat="43.54335" lon="5.51176">
        <ele>353</ele>
        <time>2020-01-14T13:21:33Z</time>
      </trkpt>
      <trkpt lat="43.54326" lon="5.51173">
        <ele>350</ele>
        <time>2020-01-14T13:21:46Z</time>
      </trkpt>
      <trkpt lat="43.54317" lon="5.51172">
        <ele>349</ele>
        <time>2020-01-14T13:21:55Z</time>
      </trkpt>
      <trkpt lat="43.54308" lon="5.51168">
        <ele>349</ele>
        <time>2020-01-14T13:22:03Z</time>
      </trkpt>
      <trkpt lat="43.54298" lon="5.51167">
        <ele>349</ele>
        <time>2020-01-14T13:22:13Z</time>
      </trkpt>
      <trkpt lat="43.54289" lon="5.51166">
        <ele>352</ele>
        <time>2020-01-14T13:22:28Z</time>
      </trkpt>
      <trkpt lat="43.54284" lon="5.51155">
        <ele>356</ele>
        <time>2020-01-14T13:22:40Z</time>
      </trkpt>
      <trkpt lat="43.54281" lon="5.51142">
        <ele>362</ele>
        <time>2020-01-14T13:22:50Z</time>
      </trkpt>
      <trkpt lat="43.54282" lon="5.51128">
        <ele>366</ele>
        <time>2020-01-14T13:22:59Z</time>
      </trkpt>
      <trkpt lat="43.54279" lon="5.51115">
        <ele>368</ele>
        <time>2020-01-14T13:23:09Z</time>
      </trkpt>
      <trkpt lat="43.54271" lon="5.51109">
        <ele>366</ele>
        <time>2020-01-14T13:23:18Z</time>
      </trkpt>
      <trkpt lat="43.54265" lon="5.51098">
        <ele>366</ele>
        <time>2020-01-14T13:23:29Z</time>
      </trkpt>
      <trkpt lat="43.54258" lon="5.51089">
        <ele>362</ele>
        <time>2020-01-14T13:23:40Z</time>
      </trkpt>
      <trkpt lat="43.54251" lon="5.51082">
        <ele>362</ele>
        <time>2020-01-14T13:23:51Z</time>
      </trkpt>
      <trkpt lat="43.54244" lon="5.51072">
        <ele>361</ele>
        <time>2020-01-14T13:24:02Z</time>
      </trkpt>
      <trkpt lat="43.54237" lon="5.51063">
        <ele>360</ele>
        <time>2020-01-14T13:24:12Z</time>
      </trkpt>
      <trkpt lat="43.54231" lon="5.51054">
        <ele>361</ele>
        <time>2020-01-14T13:24:35Z</time>
      </trkpt>
      <trkpt lat="43.54223" lon="5.51045">
        <ele>362</ele>
        <time>2020-01-14T13:24:48Z</time>
      </trkpt>
      <trkpt lat="43.54217" lon="5.51036">
        <ele>363</ele>
        <time>2020-01-14T13:24:56Z</time>
      </trkpt>
      <trkpt lat="43.54209" lon="5.51027">
        <ele>361</ele>
        <time>2020-01-14T13:25:05Z</time>
      </trkpt>
      <trkpt lat="43.54203" lon="5.51017">
        <ele>362</ele>
        <time>2020-01-14T13:25:14Z</time>
      </trkpt>
      <trkpt lat="43.54199" lon="5.51004">
        <ele>361</ele>
        <time>2020-01-14T13:25:24Z</time>
      </trkpt>
      <trkpt lat="43.54194" lon="5.50994">
        <ele>358</ele>
        <time>2020-01-14T13:25:33Z</time>
      </trkpt>
      <trkpt lat="43.5419" lon="5.50981">
        <ele>360</ele>
        <time>2020-01-14T13:25:44Z</time>
      </trkpt>
      <trkpt lat="43.54185" lon="5.5097">
        <ele>360</ele>
        <time>2020-01-14T13:25:52Z</time>
      </trkpt>
      <trkpt lat="43.54181" lon="5.50958">
        <ele>361</ele>
        <time>2020-01-14T13:26:00Z</time>
      </trkpt>
      <trkpt lat="43.54175" lon="5.50947">
        <ele>367</ele>
        <time>2020-01-14T13:26:08Z</time>
      </trkpt>
      <trkpt lat="43.54171" lon="5.50936">
        <ele>370</ele>
        <time>2020-01-14T13:26:15Z</time>
      </trkpt>
      <trkpt lat="43.54167" lon="5.50925">
        <ele>369</ele>
        <time>2020-01-14T13:26:23Z</time>
      </trkpt>
      <trkpt lat="43.5416" lon="5.50916">
        <ele>368</ele>
        <time>2020-01-14T13:26:32Z</time>
      </trkpt>
      <trkpt lat="43.54151" lon="5.50911">
        <ele>368</ele>
        <time>2020-01-14T13:26:41Z</time>
      </trkpt>
      <trkpt lat="43.54141" lon="5.50908">
        <ele>367</ele>
        <time>2020-01-14T13:26:52Z</time>
      </trkpt>
      <trkpt lat="43.54134" lon="5.509">
        <ele>365</ele>
        <time>2020-01-14T13:27:02Z</time>
      </trkpt>
      <trkpt lat="43.54126" lon="5.50891">
        <ele>363</ele>
        <time>2020-01-14T13:27:12Z</time>
      </trkpt>
      <trkpt lat="43.54122" lon="5.5088">
        <ele>362</ele>
        <time>2020-01-14T13:27:21Z</time>
      </trkpt>
      <trkpt lat="43.54119" lon="5.50867">
        <ele>362</ele>
        <time>2020-01-14T13:27:31Z</time>
      </trkpt>
      <trkpt lat="43.54116" lon="5.50855">
        <ele>365</ele>
        <time>2020-01-14T13:27:40Z</time>
      </trkpt>
      <trkpt lat="43.5411" lon="5.50846">
        <ele>363</ele>
        <time>2020-01-14T13:27:50Z</time>
      </trkpt>
      <trkpt lat="43.54101" lon="5.5084">
        <ele>359</ele>
        <time>2020-01-14T13:27:59Z</time>
      </trkpt>
      <trkpt lat="43.54092" lon="5.50836">
        <ele>358</ele>
        <time>2020-01-14T13:28:09Z</time>
      </trkpt>
      <trkpt lat="43.54084" lon="5.50829">
        <ele>355</ele>
        <time>2020-01-14T13:28:19Z</time>
      </trkpt>
      <trkpt lat="43.54076" lon="5.50821">
        <ele>357</ele>
        <time>2020-01-14T13:28:28Z</time>
      </trkpt>
      <trkpt lat="43.5407" lon="5.50812">
        <ele>358</ele>
        <time>2020-01-14T13:28:37Z</time>
      </trkpt>
      <trkpt lat="43.54063" lon="5.50803">
        <ele>357</ele>
        <time>2020-01-14T13:28:45Z</time>
      </trkpt>
      <trkpt lat="43.54056" lon="5.50795">
        <ele>356</ele>
        <time>2020-01-14T13:28:54Z</time>
      </trkpt>
      <trkpt lat="43.54047" lon="5.50791">
        <ele>354</ele>
        <time>2020-01-14T13:29:03Z</time>
      </trkpt>
      <trkpt lat="43.54038" lon="5.50787">
        <ele>352</ele>
        <time>2020-01-14T13:29:14Z</time>
      </trkpt>
      <trkpt lat="43.54031" lon="5.50777">
        <ele>352</ele>
        <time>2020-01-14T13:29:24Z</time>
      </trkpt>
      <trkpt lat="43.54027" lon="5.50764">
        <ele>354</ele>
        <time>2020-01-14T13:29:33Z</time>
      </trkpt>
      <trkpt lat="43.54026" lon="5.50751">
        <ele>357</ele>
        <time>2020-01-14T13:29:41Z</time>
      </trkpt>
      <trkpt lat="43.54023" lon="5.50738">
        <ele>360</ele>
        <time>2020-01-14T13:29:50Z</time>
      </trkpt>
      <trkpt lat="43.54021" lon="5.50725">
        <ele>361</ele>
        <time>2020-01-14T13:29:58Z</time>
      </trkpt>
      <trkpt lat="43.5402" lon="5.50713">
        <ele>364</ele>
        <time>2020-01-14T13:30:08Z</time>
      </trkpt>
      <trkpt lat="43.54019" lon="5.507">
        <ele>363</ele>
        <time>2020-01-14T13:30:18Z</time>
      </trkpt>
      <trkpt lat="43.54019" lon="5.50686">
        <ele>363</ele>
        <time>2020-01-14T13:30:27Z</time>
      </trkpt>
      <trkpt lat="43.5402" lon="5.50674">
        <ele>365</ele>
        <time>2020-01-14T13:30:37Z</time>
      </trkpt>
      <trkpt lat="43.54025" lon="5.50663">
        <ele>366</ele>
        <time>2020-01-14T13:30:49Z</time>
      </trkpt>
      <trkpt lat="43.5403" lon="5.50651">
        <ele>364</ele>
        <time>2020-01-14T13:31:00Z</time>
      </trkpt>
      <trkpt lat="43.54034" lon="5.50639">
        <ele>366</ele>
        <time>2020-01-14T13:31:09Z</time>
      </trkpt>
      <trkpt lat="43.54037" lon="5.50627">
        <ele>367</ele>
        <time>2020-01-14T13:31:19Z</time>
      </trkpt>
      <trkpt lat="43.54042" lon="5.50615">
        <ele>365</ele>
        <time>2020-01-14T13:31:28Z</time>
      </trkpt>
      <trkpt lat="43.54045" lon="5.50602">
        <ele>364</ele>
        <time>2020-01-14T13:31:39Z</time>
      </trkpt>
      <trkpt lat="43.5405" lon="5.50593">
        <ele>365</ele>
        <time>2020-01-14T13:31:50Z</time>
      </trkpt>
      <trkpt lat="43.54056" lon="5.50582">
        <ele>366</ele>
        <time>2020-01-14T13:32:02Z</time>
      </trkpt>
      <trkpt lat="43.54062" lon="5.50571">
        <ele>365</ele>
        <time>2020-01-14T13:32:16Z</time>
      </trkpt>
      <trkpt lat="43.54068" lon="5.5056">
        <ele>365</ele>
        <time>2020-01-14T13:32:26Z</time>
      </trkpt>
      <trkpt lat="43.54074" lon="5.5055">
        <ele>364</ele>
        <time>2020-01-14T13:32:36Z</time>
      </trkpt>
      <trkpt lat="43.5408" lon="5.5054">
        <ele>365</ele>
        <time>2020-01-14T13:32:47Z</time>
      </trkpt>
      <trkpt lat="43.54081" lon="5.50525">
        <ele>365</ele>
        <time>2020-01-14T13:32:59Z</time>
      </trkpt>
      <trkpt lat="43.54081" lon="5.50512">
        <ele>363</ele>
        <time>2020-01-14T13:33:09Z</time>
      </trkpt>
      <trkpt lat="43.54083" lon="5.505">
        <ele>362</ele>
        <time>2020-01-14T13:33:20Z</time>
      </trkpt>
      <trkpt lat="43.54083" lon="5.50487">
        <ele>363</ele>
        <time>2020-01-14T13:33:29Z</time>
      </trkpt>
      <trkpt lat="43.54084" lon="5.50473">
        <ele>362</ele>
        <time>2020-01-14T13:33:39Z</time>
      </trkpt>
      <trkpt lat="43.54086" lon="5.50461">
        <ele>362</ele>
        <time>2020-01-14T13:33:48Z</time>
      </trkpt>
      <trkpt lat="43.54092" lon="5.50451">
        <ele>361</ele>
        <time>2020-01-14T13:33:59Z</time>
      </trkpt>
      <trkpt lat="43.54099" lon="5.50441">
        <ele>359</ele>
        <time>2020-01-14T13:34:10Z</time>
      </trkpt>
      <trkpt lat="43.54106" lon="5.50432">
        <ele>358</ele>
        <time>2020-01-14T13:34:23Z</time>
      </trkpt>
      <trkpt lat="43.54113" lon="5.50423">
        <ele>357</ele>
        <time>2020-01-14T13:34:36Z</time>
      </trkpt>
      <trkpt lat="43.54113" lon="5.5041">
        <ele>354</ele>
        <time>2020-01-14T13:34:49Z</time>
      </trkpt>
      <trkpt lat="43.5411" lon="5.50398">
        <ele>355</ele>
        <time>2020-01-14T13:35:00Z</time>
      </trkpt>
      <trkpt lat="43.54108" lon="5.50385">
        <ele>355</ele>
        <time>2020-01-14T13:35:13Z</time>
      </trkpt>
      <trkpt lat="43.541" lon="5.50376">
        <ele>355</ele>
        <time>2020-01-14T13:35:25Z</time>
      </trkpt>
      <trkpt lat="43.54095" lon="5.50366">
        <ele>353</ele>
        <time>2020-01-14T13:35:36Z</time>
      </trkpt>
      <trkpt lat="43.54088" lon="5.50358">
        <ele>349</ele>
        <time>2020-01-14T13:35:47Z</time>
      </trkpt>
      <trkpt lat="43.54083" lon="5.50347">
        <ele>346</ele>
        <time>2020-01-14T13:36:01Z</time>
      </trkpt>
      <trkpt lat="43.54073" lon="5.50347">
        <ele>344</ele>
        <time>2020-01-14T13:36:14Z</time>
      </trkpt>
      <trkpt lat="43.54065" lon="5.50341">
        <ele>344</ele>
        <time>2020-01-14T13:36:28Z</time>
      </trkpt>
      <trkpt lat="43.5406" lon="5.5033">
        <ele>350</ele>
        <time>2020-01-14T13:36:38Z</time>
      </trkpt>
      <trkpt lat="43.54053" lon="5.5032">
        <ele>351</ele>
        <time>2020-01-14T13:36:51Z</time>
      </trkpt>
      <trkpt lat="43.54047" lon="5.50311">
        <ele>351</ele>
        <time>2020-01-14T13:37:03Z</time>
      </trkpt>
      <trkpt lat="43.54043" lon="5.503">
        <ele>353</ele>
        <time>2020-01-14T13:37:12Z</time>
      </trkpt>
      <trkpt lat="43.54038" lon="5.50289">
        <ele>353</ele>
        <time>2020-01-14T13:37:22Z</time>
      </trkpt>
      <trkpt lat="43.54032" lon="5.50279">
        <ele>353</ele>
        <time>2020-01-14T13:37:31Z</time>
      </trkpt>
      <trkpt lat="43.54025" lon="5.5027">
        <ele>356</ele>
        <time>2020-01-14T13:37:41Z</time>
      </trkpt>
      <trkpt lat="43.54018" lon="5.50262">
        <ele>352</ele>
        <time>2020-01-14T13:37:52Z</time>
      </trkpt>
      <trkpt lat="43.54008" lon="5.50259">
        <ele>350</ele>
        <time>2020-01-14T13:38:03Z</time>
      </trkpt>
      <trkpt lat="43.54001" lon="5.50251">
        <ele>353</ele>
        <time>2020-01-14T13:38:15Z</time>
      </trkpt>
      <trkpt lat="43.53993" lon="5.50244">
        <ele>355</ele>
        <time>2020-01-14T13:38:27Z</time>
      </trkpt>
      <trkpt lat="43.53987" lon="5.50234">
        <ele>356</ele>
        <time>2020-01-14T13:38:36Z</time>
      </trkpt>
      <trkpt lat="43.53979" lon="5.50227">
        <ele>354</ele>
        <time>2020-01-14T13:38:46Z</time>
      </trkpt>
      <trkpt lat="43.53971" lon="5.50221">
        <ele>355</ele>
        <time>2020-01-14T13:38:57Z</time>
      </trkpt>
      <trkpt lat="43.53963" lon="5.50214">
        <ele>356</ele>
        <time>2020-01-14T13:39:10Z</time>
      </trkpt>
      <trkpt lat="43.53954" lon="5.50211">
        <ele>352</ele>
        <time>2020-01-14T13:39:20Z</time>
      </trkpt>
      <trkpt lat="43.53947" lon="5.502">
        <ele>355</ele>
        <time>2020-01-14T13:39:38Z</time>
      </trkpt>
      <trkpt lat="43.5394" lon="5.50191">
        <ele>356</ele>
        <time>2020-01-14T13:39:49Z</time>
      </trkpt>
      <trkpt lat="43.53932" lon="5.50184">
        <ele>357</ele>
        <time>2020-01-14T13:39:57Z</time>
      </trkpt>
      <trkpt lat="43.53922" lon="5.50182">
        <ele>354</ele>
        <time>2020-01-14T13:40:08Z</time>
      </trkpt>
      <trkpt lat="43.53911" lon="5.50184">
        <ele>354</ele>
        <time>2020-01-14T13:40:18Z</time>
      </trkpt>
      <trkpt lat="43.53902" lon="5.50187">
        <ele>355</ele>
        <time>2020-01-14T13:40:27Z</time>
      </trkpt>
      <trkpt lat="43.53895" lon="5.5018">
        <ele>352</ele>
        <time>2020-01-14T13:40:37Z</time>
      </trkpt>
      <trkpt lat="43.53888" lon="5.5017">
        <ele>352</ele>
        <time>2020-01-14T13:40:48Z</time>
      </trkpt>
      <trkpt lat="43.53883" lon="5.50159">
        <ele>355</ele>
        <time>2020-01-14T13:40:57Z</time>
      </trkpt>
      <trkpt lat="43.53876" lon="5.5015">
        <ele>357</ele>
        <time>2020-01-14T13:41:05Z</time>
      </trkpt>
      <trkpt lat="43.53869" lon="5.50142">
        <ele>358</ele>
        <time>2020-01-14T13:41:17Z</time>
      </trkpt>
      <trkpt lat="43.53861" lon="5.50133">
        <ele>358</ele>
        <time>2020-01-14T13:41:31Z</time>
      </trkpt>
      <trkpt lat="43.53853" lon="5.50127">
        <ele>355</ele>
        <time>2020-01-14T13:41:41Z</time>
      </trkpt>
      <trkpt lat="43.53847" lon="5.50117">
        <ele>356</ele>
        <time>2020-01-14T13:41:51Z</time>
      </trkpt>
      <trkpt lat="43.5384" lon="5.50107">
        <ele>356</ele>
        <time>2020-01-14T13:42:01Z</time>
      </trkpt>
      <trkpt lat="43.53834" lon="5.50098">
        <ele>357</ele>
        <time>2020-01-14T13:42:11Z</time>
      </trkpt>
      <trkpt lat="43.53827" lon="5.50089">
        <ele>358</ele>
        <time>2020-01-14T13:42:23Z</time>
      </trkpt>
      <trkpt lat="43.53821" lon="5.50079">
        <ele>358</ele>
        <time>2020-01-14T13:42:32Z</time>
      </trkpt>
      <trkpt lat="43.53814" lon="5.5007">
        <ele>355</ele>
        <time>2020-01-14T13:42:43Z</time>
      </trkpt>
      <trkpt lat="43.53807" lon="5.5006">
        <ele>354</ele>
        <time>2020-01-14T13:42:52Z</time>
      </trkpt>
      <trkpt lat="43.53799" lon="5.50055">
        <ele>353</ele>
        <time>2020-01-14T13:43:05Z</time>
      </trkpt>
      <trkpt lat="43.53794" lon="5.50045">
        <ele>353</ele>
        <time>2020-01-14T13:43:21Z</time>
      </trkpt>
      <trkpt lat="43.53792" lon="5.50033">
        <ele>352</ele>
        <time>2020-01-14T13:43:28Z</time>
      </trkpt>
      <trkpt lat="43.53784" lon="5.50025">
        <ele>351</ele>
        <time>2020-01-14T13:43:37Z</time>
      </trkpt>
      <trkpt lat="43.53777" lon="5.50017">
        <ele>353</ele>
        <time>2020-01-14T13:43:48Z</time>
      </trkpt>
      <trkpt lat="43.53771" lon="5.50007">
        <ele>353</ele>
        <time>2020-01-14T13:43:57Z</time>
      </trkpt>
      <trkpt lat="43.53767" lon="5.49995">
        <ele>352</ele>
        <time>2020-01-14T13:44:08Z</time>
      </trkpt>
      <trkpt lat="43.53767" lon="5.49982">
        <ele>352</ele>
        <time>2020-01-14T13:44:19Z</time>
      </trkpt>
      <trkpt lat="43.53766" lon="5.49969">
        <ele>354</ele>
        <time>2020-01-14T13:44:30Z</time>
      </trkpt>
      <trkpt lat="43.53766" lon="5.49955">
        <ele>354</ele>
        <time>2020-01-14T13:44:43Z</time>
      </trkpt>
      <trkpt lat="43.53764" lon="5.49942">
        <ele>354</ele>
        <time>2020-01-14T13:44:56Z</time>
      </trkpt>
      <trkpt lat="43.53765" lon="5.49929">
        <ele>353</ele>
        <time>2020-01-14T13:45:06Z</time>
      </trkpt>
      <trkpt lat="43.53762" lon="5.49916">
        <ele>354</ele>
        <time>2020-01-14T13:45:14Z</time>
      </trkpt>
      <trkpt lat="43.53752" lon="5.49911">
        <ele>353</ele>
        <time>2020-01-14T13:45:27Z</time>
      </trkpt>
      <trkpt lat="43.53742" lon="5.4991">
        <ele>353</ele>
        <time>2020-01-14T13:45:33Z</time>
      </trkpt>
      <trkpt lat="43.53733" lon="5.49906">
        <ele>352</ele>
        <time>2020-01-14T13:45:44Z</time>
      </trkpt>
      <trkpt lat="43.53724" lon="5.49901">
        <ele>351</ele>
        <time>2020-01-14T13:45:54Z</time>
      </trkpt>
      <trkpt lat="43.53716" lon="5.49893">
        <ele>350</ele>
        <time>2020-01-14T13:46:05Z</time>
      </trkpt>
      <trkpt lat="43.53708" lon="5.49887">
        <ele>351</ele>
        <time>2020-01-14T13:46:15Z</time>
      </trkpt>
      <trkpt lat="43.53701" lon="5.4988">
        <ele>349</ele>
        <time>2020-01-14T13:46:42Z</time>
      </trkpt>
      <trkpt lat="43.53697" lon="5.49868">
        <ele>348</ele>
        <time>2020-01-14T13:46:53Z</time>
      </trkpt>
      <trkpt lat="43.53696" lon="5.49855">
        <ele>347</ele>
        <time>2020-01-14T13:47:02Z</time>
      </trkpt>
      <trkpt lat="43.53698" lon="5.49843">
        <ele>349</ele>
        <time>2020-01-14T13:47:15Z</time>
      </trkpt>
      <trkpt lat="43.53696" lon="5.49831">
        <ele>348</ele>
        <time>2020-01-14T13:47:21Z</time>
      </trkpt>
      <trkpt lat="43.53696" lon="5.49817">
        <ele>350</ele>
        <time>2020-01-14T13:47:30Z</time>
      </trkpt>
      <trkpt lat="43.53697" lon="5.49804">
        <ele>351</ele>
        <time>2020-01-14T13:47:38Z</time>
      </trkpt>
      <trkpt lat="43.53699" lon="5.49791">
        <ele>354</ele>
        <time>2020-01-14T13:47:48Z</time>
      </trkpt>
      <trkpt lat="43.537" lon="5.49778">
        <ele>352</ele>
        <time>2020-01-14T13:47:56Z</time>
      </trkpt>
      <trkpt lat="43.53703" lon="5.49765">
        <ele>349</ele>
        <time>2020-01-14T13:48:05Z</time>
      </trkpt>
      <trkpt lat="43.53706" lon="5.49751">
        <ele>349</ele>
        <time>2020-01-14T13:48:18Z</time>
      </trkpt>
      <trkpt lat="43.53703" lon="5.49738">
        <ele>347</ele>
        <time>2020-01-14T13:48:32Z</time>
      </trkpt>
      <trkpt lat="43.537" lon="5.49725">
        <ele>348</ele>
        <time>2020-01-14T13:48:44Z</time>
      </trkpt>
      <trkpt lat="43.53696" lon="5.49714">
        <ele>349</ele>
        <time>2020-01-14T13:48:52Z</time>
      </trkpt>
      <trkpt lat="43.53691" lon="5.49703">
        <ele>348</ele>
        <time>2020-01-14T13:48:59Z</time>
      </trkpt>
      <trkpt lat="43.53682" lon="5.49697">
        <ele>347</ele>
        <time>2020-01-14T13:49:11Z</time>
      </trkpt>
      <trkpt lat="43.53674" lon="5.49693">
        <ele>346</ele>
        <time>2020-01-14T13:49:19Z</time>
      </trkpt>
      <trkpt lat="43.53664" lon="5.49691">
        <ele>346</ele>
        <time>2020-01-14T13:49:27Z</time>
      </trkpt>
      <trkpt lat="43.53655" lon="5.49696">
        <ele>345</ele>
        <time>2020-01-14T13:49:35Z</time>
      </trkpt>
      <trkpt lat="43.53645" lon="5.49693">
        <ele>344</ele>
        <time>2020-01-14T13:49:45Z</time>
      </trkpt>
      <trkpt lat="43.53636" lon="5.49693">
        <ele>342</ele>
        <time>2020-01-14T13:49:55Z</time>
      </trkpt>
      <trkpt lat="43.53627" lon="5.49695">
        <ele>343</ele>
        <time>2020-01-14T13:50:03Z</time>
      </trkpt>
      <trkpt lat="43.53617" lon="5.49698">
        <ele>344</ele>
        <time>2020-01-14T13:50:13Z</time>
      </trkpt>
      <trkpt lat="43.53607" lon="5.49697">
        <ele>342</ele>
        <time>2020-01-14T13:50:21Z</time>
      </trkpt>
      <trkpt lat="43.536" lon="5.49689">
        <ele>343</ele>
        <time>2020-01-14T13:50:30Z</time>
      </trkpt>
      <trkpt lat="43.53595" lon="5.49678">
        <ele>343</ele>
        <time>2020-01-14T13:50:38Z</time>
      </trkpt>
      <trkpt lat="43.5359" lon="5.49666">
        <ele>344</ele>
        <time>2020-01-14T13:50:46Z</time>
      </trkpt>
      <trkpt lat="43.53585" lon="5.49654">
        <ele>343</ele>
        <time>2020-01-14T13:50:58Z</time>
      </trkpt>
      <trkpt lat="43.53581" lon="5.49643">
        <ele>340</ele>
        <time>2020-01-14T13:51:08Z</time>
      </trkpt>
      <trkpt lat="43.53576" lon="5.49631">
        <ele>339</ele>
        <time>2020-01-14T13:51:19Z</time>
      </trkpt>
      <trkpt lat="43.53567" lon="5.49625">
        <ele>339</ele>
        <time>2020-01-14T13:51:29Z</time>
      </trkpt>
      <trkpt lat="43.53559" lon="5.49622">
        <ele>340</ele>
        <time>2020-01-14T13:51:39Z</time>
      </trkpt>
      <trkpt lat="43.53549" lon="5.49624">
        <ele>337</ele>
        <time>2020-01-14T13:51:50Z</time>
      </trkpt>
      <trkpt lat="43.53539" lon="5.49624">
        <ele>338</ele>
        <time>2020-01-14T13:52:00Z</time>
      </trkpt>
      <trkpt lat="43.5353" lon="5.49621">
        <ele>339</ele>
        <time>2020-01-14T13:52:10Z</time>
      </trkpt>
      <trkpt lat="43.53521" lon="5.49617">
        <ele>338</ele>
        <time>2020-01-14T13:52:19Z</time>
      </trkpt>
      <trkpt lat="43.53513" lon="5.49611">
        <ele>337</ele>
        <time>2020-01-14T13:52:28Z</time>
      </trkpt>
      <trkpt lat="43.53505" lon="5.49604">
        <ele>337</ele>
        <time>2020-01-14T13:52:37Z</time>
      </trkpt>
      <trkpt lat="43.53498" lon="5.49597">
        <ele>338</ele>
        <time>2020-01-14T13:52:47Z</time>
      </trkpt>
      <trkpt lat="43.53493" lon="5.49585">
        <ele>337</ele>
        <time>2020-01-14T13:53:29Z</time>
      </trkpt>
      <trkpt lat="43.53485" lon="5.49579">
        <ele>336</ele>
        <time>2020-01-14T13:53:38Z</time>
      </trkpt>
      <trkpt lat="43.53478" lon="5.4957">
        <ele>336</ele>
        <time>2020-01-14T13:53:47Z</time>
      </trkpt>
      <trkpt lat="43.53471" lon="5.49561">
        <ele>336</ele>
        <time>2020-01-14T13:53:57Z</time>
      </trkpt>
      <trkpt lat="43.53462" lon="5.49557">
        <ele>337</ele>
        <time>2020-01-14T13:54:07Z</time>
      </trkpt>
      <trkpt lat="43.53453" lon="5.49553">
        <ele>339</ele>
        <time>2020-01-14T13:54:17Z</time>
      </trkpt>
      <trkpt lat="43.53445" lon="5.49547">
        <ele>340</ele>
        <time>2020-01-14T13:54:25Z</time>
      </trkpt>
      <trkpt lat="43.53436" lon="5.49546">
        <ele>338</ele>
        <time>2020-01-14T13:54:36Z</time>
      </trkpt>
      <trkpt lat="43.53426" lon="5.49545">
        <ele>335</ele>
        <time>2020-01-14T13:54:46Z</time>
      </trkpt>
      <trkpt lat="43.53417" lon="5.49548">
        <ele>336</ele>
        <time>2020-01-14T13:54:55Z</time>
      </trkpt>
      <trkpt lat="43.53408" lon="5.49555">
        <ele>338</ele>
        <time>2020-01-14T13:55:05Z</time>
      </trkpt>
      <trkpt lat="43.53401" lon="5.49564">
        <ele>336</ele>
        <time>2020-01-14T13:55:14Z</time>
      </trkpt>
      <trkpt lat="43.53392" lon="5.4957">
        <ele>337</ele>
        <time>2020-01-14T13:55:23Z</time>
      </trkpt>
      <trkpt lat="43.53385" lon="5.49581">
        <ele>339</ele>
        <time>2020-01-14T13:55:38Z</time>
      </trkpt>
      <trkpt lat="43.53377" lon="5.49588">
        <ele>339</ele>
        <time>2020-01-14T13:55:47Z</time>
      </trkpt>
      <trkpt lat="43.53369" lon="5.49595">
        <ele>340</ele>
        <time>2020-01-14T13:55:57Z</time>
      </trkpt>
      <trkpt lat="43.5336" lon="5.49603">
        <ele>339</ele>
        <time>2020-01-14T13:56:09Z</time>
      </trkpt>
      <trkpt lat="43.53353" lon="5.4961">
        <ele>340</ele>
        <time>2020-01-14T13:56:19Z</time>
      </trkpt>
      <trkpt lat="43.53345" lon="5.49616">
        <ele>337</ele>
        <time>2020-01-14T13:56:28Z</time>
      </trkpt>
      <trkpt lat="43.53341" lon="5.49628">
        <ele>338</ele>
        <time>2020-01-14T13:56:48Z</time>
      </trkpt>
      <trkpt lat="43.53335" lon="5.49638">
        <ele>338</ele>
        <time>2020-01-14T13:57:09Z</time>
      </trkpt>
      <trkpt lat="43.5333" lon="5.49648">
        <ele>335</ele>
        <time>2020-01-14T14:04:40Z</time>
      </trkpt>
      <trkpt lat="43.53323" lon="5.49658">
        <ele>335</ele>
        <time>2020-01-14T14:04:52Z</time>
      </trkpt>
      <trkpt lat="43.53315" lon="5.49667">
        <ele>334</ele>
        <time>2020-01-14T14:05:03Z</time>
      </trkpt>
      <trkpt lat="43.53309" lon="5.49678">
        <ele>336</ele>
        <time>2020-01-14T14:05:14Z</time>
      </trkpt>
      <trkpt lat="43.53304" lon="5.49689">
        <ele>336</ele>
        <time>2020-01-14T14:05:23Z</time>
      </trkpt>
      <trkpt lat="43.53299" lon="5.49701">
        <ele>338</ele>
        <time>2020-01-14T14:05:36Z</time>
      </trkpt>
      <trkpt lat="43.53291" lon="5.4971">
        <ele>338</ele>
        <time>2020-01-14T14:05:47Z</time>
      </trkpt>
      <trkpt lat="43.53286" lon="5.49721">
        <ele>339</ele>
        <time>2020-01-14T14:05:57Z</time>
      </trkpt>
      <trkpt lat="43.53281" lon="5.49733">
        <ele>339</ele>
        <time>2020-01-14T14:06:06Z</time>
      </trkpt>
      <trkpt lat="43.5328" lon="5.49745">
        <ele>339</ele>
        <time>2020-01-14T14:06:17Z</time>
      </trkpt>
      <trkpt lat="43.53279" lon="5.49759">
        <ele>340</ele>
        <time>2020-01-14T14:06:29Z</time>
      </trkpt>
      <trkpt lat="43.53276" lon="5.49771">
        <ele>339</ele>
        <time>2020-01-14T14:06:40Z</time>
      </trkpt>
      <trkpt lat="43.5327" lon="5.49781">
        <ele>338</ele>
        <time>2020-01-14T14:06:49Z</time>
      </trkpt>
      <trkpt lat="43.53266" lon="5.49792">
        <ele>338</ele>
        <time>2020-01-14T14:06:59Z</time>
      </trkpt>
      <trkpt lat="43.53264" lon="5.49805">
        <ele>340</ele>
        <time>2020-01-14T14:07:08Z</time>
      </trkpt>
      <trkpt lat="43.53262" lon="5.49818">
        <ele>341</ele>
        <time>2020-01-14T14:07:18Z</time>
      </trkpt>
      <trkpt lat="43.53261" lon="5.49831">
        <ele>341</ele>
        <time>2020-01-14T14:07:28Z</time>
      </trkpt>
      <trkpt lat="43.53257" lon="5.49842">
        <ele>340</ele>
        <time>2020-01-14T14:07:38Z</time>
      </trkpt>
      <trkpt lat="43.53254" lon="5.49855">
        <ele>341</ele>
        <time>2020-01-14T14:07:47Z</time>
      </trkpt>
      <trkpt lat="43.53252" lon="5.49868">
        <ele>340</ele>
        <time>2020-01-14T14:07:58Z</time>
      </trkpt>
      <trkpt lat="43.53249" lon="5.4988">
        <ele>341</ele>
        <time>2020-01-14T14:08:09Z</time>
      </trkpt>
      <trkpt lat="43.53244" lon="5.49892">
        <ele>340</ele>
        <time>2020-01-14T14:08:19Z</time>
      </trkpt>
      <trkpt lat="43.5324" lon="5.49903">
        <ele>340</ele>
        <time>2020-01-14T14:08:29Z</time>
      </trkpt>
      <trkpt lat="43.53233" lon="5.49914">
        <ele>341</ele>
        <time>2020-01-14T14:08:39Z</time>
      </trkpt>
      <trkpt lat="43.53227" lon="5.49923">
        <ele>340</ele>
        <time>2020-01-14T14:08:48Z</time>
      </trkpt>
      <trkpt lat="43.53223" lon="5.49935">
        <ele>340</ele>
        <time>2020-01-14T14:08:58Z</time>
      </trkpt>
      <trkpt lat="43.5322" lon="5.49948">
        <ele>342</ele>
        <time>2020-01-14T14:09:10Z</time>
      </trkpt>
      <trkpt lat="43.53214" lon="5.49958">
        <ele>342</ele>
        <time>2020-01-14T14:09:21Z</time>
      </trkpt>
      <trkpt lat="43.53206" lon="5.49964">
        <ele>343</ele>
        <time>2020-01-14T14:09:32Z</time>
      </trkpt>
      <trkpt lat="43.53195" lon="5.49965">
        <ele>342</ele>
        <time>2020-01-14T14:09:41Z</time>
      </trkpt>
      <trkpt lat="43.53186" lon="5.49969">
        <ele>344</ele>
        <time>2020-01-14T14:09:50Z</time>
      </trkpt>
      <trkpt lat="43.53179" lon="5.49977">
        <ele>344</ele>
        <time>2020-01-14T14:10:01Z</time>
      </trkpt>
      <trkpt lat="43.53172" lon="5.49985">
        <ele>345</ele>
        <time>2020-01-14T14:10:12Z</time>
      </trkpt>
      <trkpt lat="43.53166" lon="5.49995">
        <ele>346</ele>
        <time>2020-01-14T14:10:23Z</time>
      </trkpt>
      <trkpt lat="43.5316" lon="5.50005">
        <ele>344</ele>
        <time>2020-01-14T14:10:33Z</time>
      </trkpt>
      <trkpt lat="43.53153" lon="5.50013">
        <ele>345</ele>
        <time>2020-01-14T14:10:42Z</time>
      </trkpt>
      <trkpt lat="43.53146" lon="5.50021">
        <ele>343</ele>
        <time>2020-01-14T14:10:53Z</time>
      </trkpt>
      <trkpt lat="43.53139" lon="5.5003">
        <ele>345</ele>
        <time>2020-01-14T14:11:03Z</time>
      </trkpt>
      <trkpt lat="43.53134" lon="5.5004">
        <ele>345</ele>
        <time>2020-01-14T14:11:12Z</time>
      </trkpt>
      <trkpt lat="43.53131" lon="5.50054">
        <ele>344</ele>
        <time>2020-01-14T14:11:22Z</time>
      </trkpt>
      <trkpt lat="43.5313" lon="5.50066">
        <ele>347</ele>
        <time>2020-01-14T14:11:31Z</time>
      </trkpt>
      <trkpt lat="43.53134" lon="5.50078">
        <ele>345</ele>
        <time>2020-01-14T14:11:42Z</time>
      </trkpt>
      <trkpt lat="43.53137" lon="5.50092">
        <ele>342</ele>
        <time>2020-01-14T14:11:53Z</time>
      </trkpt>
      <trkpt lat="43.53143" lon="5.50102">
        <ele>343</ele>
        <time>2020-01-14T14:12:05Z</time>
      </trkpt>
      <trkpt lat="43.53148" lon="5.50113">
        <ele>343</ele>
        <time>2020-01-14T14:12:15Z</time>
      </trkpt>
      <trkpt lat="43.53154" lon="5.50124">
        <ele>342</ele>
        <time>2020-01-14T14:12:25Z</time>
      </trkpt>
      <trkpt lat="43.5316" lon="5.50135">
        <ele>344</ele>
        <time>2020-01-14T14:12:36Z</time>
      </trkpt>
      <trkpt lat="43.53167" lon="5.50145">
        <ele>343</ele>
        <time>2020-01-14T14:12:46Z</time>
      </trkpt>
      <trkpt lat="43.53175" lon="5.50154">
        <ele>342</ele>
        <time>2020-01-14T14:12:56Z</time>
      </trkpt>
      <trkpt lat="43.53181" lon="5.50165">
        <ele>343</ele>
        <time>2020-01-14T14:13:04Z</time>
      </trkpt>
      <trkpt lat="43.53185" lon="5.50177">
        <ele>344</ele>
        <time>2020-01-14T14:13:14Z</time>
      </trkpt>
      <trkpt lat="43.53189" lon="5.50188">
        <ele>346</ele>
        <time>2020-01-14T14:13:24Z</time>
      </trkpt>
      <trkpt lat="43.53194" lon="5.50199">
        <ele>345</ele>
        <time>2020-01-14T14:13:35Z</time>
      </trkpt>
      <trkpt lat="43.53195" lon="5.50211">
        <ele>346</ele>
        <time>2020-01-14T14:13:44Z</time>
      </trkpt>
      <trkpt lat="43.53201" lon="5.50221">
        <ele>349</ele>
        <time>2020-01-14T14:13:55Z</time>
      </trkpt>
      <trkpt lat="43.53207" lon="5.50233">
        <ele>348</ele>
        <time>2020-01-14T14:14:06Z</time>
      </trkpt>
      <trkpt lat="43.53207" lon="5.50246">
        <ele>348</ele>
        <time>2020-01-14T14:14:14Z</time>
      </trkpt>
      <trkpt lat="43.5321" lon="5.50258">
        <ele>348</ele>
        <time>2020-01-14T14:14:21Z</time>
      </trkpt>
      <trkpt lat="43.53214" lon="5.5027">
        <ele>348</ele>
        <time>2020-01-14T14:14:31Z</time>
      </trkpt>
      <trkpt lat="43.53219" lon="5.50282">
        <ele>347</ele>
        <time>2020-01-14T14:14:41Z</time>
      </trkpt>
      <trkpt lat="43.53223" lon="5.50294">
        <ele>349</ele>
        <time>2020-01-14T14:14:52Z</time>
      </trkpt>
      <trkpt lat="43.53227" lon="5.50307">
        <ele>347</ele>
        <time>2020-01-14T14:15:02Z</time>
      </trkpt>
      <trkpt lat="43.53233" lon="5.50316">
        <ele>348</ele>
        <time>2020-01-14T14:15:12Z</time>
      </trkpt>
      <trkpt lat="43.53236" lon="5.5033">
        <ele>346</ele>
        <time>2020-01-14T14:15:22Z</time>
      </trkpt>
      <trkpt lat="43.53237" lon="5.50343">
        <ele>344</ele>
        <time>2020-01-14T14:15:32Z</time>
      </trkpt>
      <trkpt lat="43.5324" lon="5.50355">
        <ele>344</ele>
        <time>2020-01-14T14:15:42Z</time>
      </trkpt>
      <trkpt lat="43.53241" lon="5.50367">
        <ele>345</ele>
        <time>2020-01-14T14:15:50Z</time>
      </trkpt>
      <trkpt lat="43.53242" lon="5.5038">
        <ele>345</ele>
        <time>2020-01-14T14:15:59Z</time>
      </trkpt>
      <trkpt lat="43.53243" lon="5.50393">
        <ele>346</ele>
        <time>2020-01-14T14:16:09Z</time>
      </trkpt>
      <trkpt lat="43.5325" lon="5.50404">
        <ele>346</ele>
        <time>2020-01-14T14:16:23Z</time>
      </trkpt>
      <trkpt lat="43.53258" lon="5.50408">
        <ele>345</ele>
        <time>2020-01-14T14:16:30Z</time>
      </trkpt>
      <trkpt lat="43.53268" lon="5.50409">
        <ele>346</ele>
        <time>2020-01-14T14:16:42Z</time>
      </trkpt>
      <trkpt lat="43.53277" lon="5.50412">
        <ele>346</ele>
        <time>2020-01-14T14:16:51Z</time>
      </trkpt>
      <trkpt lat="43.53286" lon="5.50406">
        <ele>344</ele>
        <time>2020-01-14T14:17:00Z</time>
      </trkpt>
      <trkpt lat="43.53294" lon="5.50402">
        <ele>342</ele>
        <time>2020-01-14T14:17:10Z</time>
      </trkpt>
      <trkpt lat="43.53304" lon="5.50399">
        <ele>343</ele>
        <time>2020-01-14T14:17:19Z</time>
      </trkpt>
      <trkpt lat="43.53312" lon="5.50393">
        <ele>341</ele>
        <time>2020-01-14T14:17:29Z</time>
      </trkpt>
      <trkpt lat="43.53321" lon="5.50386">
        <ele>340</ele>
        <time>2020-01-14T14:17:39Z</time>
      </trkpt>
      <trkpt lat="43.5333" lon="5.50379">
        <ele>339</ele>
        <time>2020-01-14T14:17:48Z</time>
      </trkpt>
      <trkpt lat="43.53338" lon="5.50371">
        <ele>339</ele>
        <time>2020-01-14T14:17:56Z</time>
      </trkpt>
      <trkpt lat="43.53347" lon="5.50367">
        <ele>337</ele>
        <time>2020-01-14T14:18:07Z</time>
      </trkpt>
      <trkpt lat="43.53355" lon="5.50362">
        <ele>337</ele>
        <time>2020-01-14T14:18:16Z</time>
      </trkpt>
      <trkpt lat="43.53364" lon="5.50355">
        <ele>336</ele>
        <time>2020-01-14T14:18:26Z</time>
      </trkpt>
      <trkpt lat="43.53372" lon="5.50349">
        <ele>338</ele>
        <time>2020-01-14T14:18:36Z</time>
      </trkpt>
      <trkpt lat="43.5338" lon="5.50342">
        <ele>337</ele>
        <time>2020-01-14T14:18:45Z</time>
      </trkpt>
      <trkpt lat="43.53389" lon="5.50338">
        <ele>337</ele>
        <time>2020-01-14T14:18:55Z</time>
      </trkpt>
      <trkpt lat="43.53398" lon="5.50336">
        <ele>339</ele>
        <time>2020-01-14T14:19:03Z</time>
      </trkpt>
      <trkpt lat="43.53407" lon="5.50334">
        <ele>338</ele>
        <time>2020-01-14T14:19:13Z</time>
      </trkpt>
      <trkpt lat="43.53417" lon="5.50334">
        <ele>339</ele>
        <time>2020-01-14T14:19:22Z</time>
      </trkpt>
      <trkpt lat="43.53426" lon="5.50339">
        <ele>339</ele>
        <time>2020-01-14T14:19:32Z</time>
      </trkpt>
      <trkpt lat="43.53435" lon="5.50344">
        <ele>339</ele>
        <time>2020-01-14T14:19:43Z</time>
      </trkpt>
      <trkpt lat="43.53442" lon="5.50351">
        <ele>337</ele>
        <time>2020-01-14T14:19:53Z</time>
      </trkpt>
      <trkpt lat="43.53446" lon="5.50363">
        <ele>337</ele>
        <time>2020-01-14T14:20:04Z</time>
      </trkpt>
      <trkpt lat="43.53446" lon="5.50376">
        <ele>339</ele>
        <time>2020-01-14T14:20:14Z</time>
      </trkpt>
      <trkpt lat="43.53445" lon="5.5039">
        <ele>339</ele>
        <time>2020-01-14T14:20:23Z</time>
      </trkpt>
      <trkpt lat="43.53446" lon="5.50403">
        <ele>338</ele>
        <time>2020-01-14T14:20:33Z</time>
      </trkpt>
      <trkpt lat="43.5345" lon="5.50414">
        <ele>339</ele>
        <time>2020-01-14T14:20:42Z</time>
      </trkpt>
      <trkpt lat="43.53452" lon="5.50427">
        <ele>340</ele>
        <time>2020-01-14T14:20:52Z</time>
      </trkpt>
      <trkpt lat="43.53456" lon="5.50438">
        <ele>341</ele>
        <time>2020-01-14T14:21:03Z</time>
      </trkpt>
      <trkpt lat="43.53462" lon="5.50447">
        <ele>340</ele>
        <time>2020-01-14T14:21:11Z</time>
      </trkpt>
      <trkpt lat="43.5347" lon="5.50456">
        <ele>342</ele>
        <time>2020-01-14T14:21:21Z</time>
      </trkpt>
      <trkpt lat="43.53473" lon="5.5047">
        <ele>343</ele>
        <time>2020-01-14T14:21:34Z</time>
      </trkpt>
      <trkpt lat="43.53478" lon="5.50481">
        <ele>342</ele>
        <time>2020-01-14T14:21:43Z</time>
      </trkpt>
      <trkpt lat="43.53481" lon="5.50494">
        <ele>340</ele>
        <time>2020-01-14T14:21:54Z</time>
      </trkpt>
      <trkpt lat="43.53486" lon="5.50504">
        <ele>343</ele>
        <time>2020-01-14T14:22:05Z</time>
      </trkpt>
      <trkpt lat="43.53491" lon="5.50515">
        <ele>340</ele>
        <time>2020-01-14T14:22:15Z</time>
      </trkpt>
      <trkpt lat="43.53495" lon="5.50528">
        <ele>340</ele>
        <time>2020-01-14T14:22:25Z</time>
      </trkpt>
      <trkpt lat="43.53502" lon="5.50538">
        <ele>338</ele>
        <time>2020-01-14T14:22:38Z</time>
      </trkpt>
      <trkpt lat="43.53507" lon="5.50549">
        <ele>337</ele>
        <time>2020-01-14T14:22:48Z</time>
      </trkpt>
      <trkpt lat="43.53514" lon="5.50558">
        <ele>339</ele>
        <time>2020-01-14T14:23:02Z</time>
      </trkpt>
      <trkpt lat="43.53523" lon="5.50564">
        <ele>340</ele>
        <time>2020-01-14T14:23:13Z</time>
      </trkpt>
      <trkpt lat="43.53532" lon="5.5057">
        <ele>340</ele>
        <time>2020-01-14T14:23:23Z</time>
      </trkpt>
      <trkpt lat="43.5354" lon="5.50574">
        <ele>340</ele>
        <time>2020-01-14T14:23:33Z</time>
      </trkpt>
      <trkpt lat="43.53549" lon="5.50577">
        <ele>339</ele>
        <time>2020-01-14T14:23:44Z</time>
      </trkpt>
      <trkpt lat="43.53558" lon="5.50583">
        <ele>338</ele>
        <time>2020-01-14T14:23:55Z</time>
      </trkpt>
      <trkpt lat="43.53565" lon="5.50592">
        <ele>338</ele>
        <time>2020-01-14T14:24:05Z</time>
      </trkpt>
      <trkpt lat="43.53571" lon="5.50601">
        <ele>338</ele>
        <time>2020-01-14T14:24:12Z</time>
      </trkpt>
      <trkpt lat="43.53578" lon="5.5061">
        <ele>338</ele>
        <time>2020-01-14T14:24:23Z</time>
      </trkpt>
      <trkpt lat="43.53586" lon="5.50618">
        <ele>335</ele>
        <time>2020-01-14T14:24:34Z</time>
      </trkpt>
      <trkpt lat="43.53595" lon="5.50621">
        <ele>340</ele>
        <time>2020-01-14T14:24:44Z</time>
      </trkpt>
      <trkpt lat="43.53602" lon="5.50629">
        <ele>343</ele>
        <time>2020-01-14T14:25:05Z</time>
      </trkpt>
      <trkpt lat="43.53608" lon="5.50639">
        <ele>337</ele>
        <time>2020-01-14T14:25:20Z</time>
      </trkpt>
      <trkpt lat="43.53612" lon="5.50652">
        <ele>338</ele>
        <time>2020-01-14T14:25:30Z</time>
      </trkpt>
      <trkpt lat="43.53615" lon="5.50665">
        <ele>339</ele>
        <time>2020-01-14T14:25:41Z</time>
      </trkpt>
      <trkpt lat="43.53621" lon="5.50676">
        <ele>336</ele>
        <time>2020-01-14T14:25:51Z</time>
      </trkpt>
      <trkpt lat="43.53627" lon="5.50686">
        <ele>336</ele>
        <time>2020-01-14T14:26:02Z</time>
      </trkpt>
      <trkpt lat="43.53633" lon="5.50696">
        <ele>337</ele>
        <time>2020-01-14T14:26:11Z</time>
      </trkpt>
      <trkpt lat="43.53639" lon="5.50707">
        <ele>336</ele>
        <time>2020-01-14T14:26:21Z</time>
      </trkpt>
      <trkpt lat="43.53647" lon="5.50716">
        <ele>336</ele>
        <time>2020-01-14T14:26:29Z</time>
      </trkpt>
      <trkpt lat="43.53651" lon="5.50726">
        <ele>338</ele>
        <time>2020-01-14T14:26:39Z</time>
      </trkpt>
      <trkpt lat="43.53658" lon="5.50736">
        <ele>339</ele>
        <time>2020-01-14T14:26:48Z</time>
      </trkpt>
      <trkpt lat="43.53665" lon="5.50744">
        <ele>338</ele>
        <time>2020-01-14T14:26:57Z</time>
      </trkpt>
      <trkpt lat="43.53673" lon="5.50752">
        <ele>335</ele>
        <time>2020-01-14T14:32:48Z</time>
      </trkpt>
      <trkpt lat="43.53681" lon="5.50759">
        <ele>335</ele>
        <time>2020-01-14T14:32:59Z</time>
      </trkpt>
      <trkpt lat="43.53689" lon="5.50767">
        <ele>336</ele>
        <time>2020-01-14T14:33:08Z</time>
      </trkpt>
      <trkpt lat="43.53694" lon="5.50778">
        <ele>336</ele>
        <time>2020-01-14T14:33:18Z</time>
      </trkpt>
      <trkpt lat="43.537" lon="5.50788">
        <ele>338</ele>
        <time>2020-01-14T14:33:27Z</time>
      </trkpt>
      <trkpt lat="43.53706" lon="5.50799">
        <ele>339</ele>
        <time>2020-01-14T14:33:36Z</time>
      </trkpt>
      <trkpt lat="43.53712" lon="5.50807">
        <ele>340</ele>
        <time>2020-01-14T14:33:44Z</time>
      </trkpt>
      <trkpt lat="43.5372" lon="5.50815">
        <ele>341</ele>
        <time>2020-01-14T14:33:53Z</time>
      </trkpt>
      <trkpt lat="43.53726" lon="5.50825">
        <ele>344</ele>
        <time>2020-01-14T14:34:08Z</time>
      </trkpt>
      <trkpt lat="43.53731" lon="5.50836">
        <ele>341</ele>
        <time>2020-01-14T14:34:18Z</time>
      </trkpt>
      <trkpt lat="43.53739" lon="5.50844">
        <ele>341</ele>
        <time>2020-01-14T14:34:27Z</time>
      </trkpt>
      <trkpt lat="43.53748" lon="5.50847">
        <ele>343</ele>
        <time>2020-01-14T14:34:38Z</time>
      </trkpt>
      <trkpt lat="43.53758" lon="5.50845">
        <ele>342</ele>
        <time>2020-01-14T14:34:48Z</time>
      </trkpt>
      <trkpt lat="43.53767" lon="5.50844">
        <ele>343</ele>
        <time>2020-01-14T14:34:59Z</time>
      </trkpt>
      <trkpt lat="43.53777" lon="5.50846">
        <ele>347</ele>
        <time>2020-01-14T14:35:10Z</time>
      </trkpt>
      <trkpt lat="43.53786" lon="5.5085">
        <ele>346</ele>
        <time>2020-01-14T14:35:20Z</time>
      </trkpt>
      <trkpt lat="43.53794" lon="5.50855">
        <ele>344</ele>
        <time>2020-01-14T14:35:32Z</time>
      </trkpt>
      <trkpt lat="43.53803" lon="5.50862">
        <ele>344</ele>
        <time>2020-01-14T14:35:44Z</time>
      </trkpt>
      <trkpt lat="43.53811" lon="5.50869">
        <ele>347</ele>
        <time>2020-01-14T14:35:55Z</time>
      </trkpt>
      <trkpt lat="43.5382" lon="5.50872">
        <ele>350</ele>
        <time>2020-01-14T14:36:07Z</time>
      </trkpt>
      <trkpt lat="43.53829" lon="5.50874">
        <ele>352</ele>
        <time>2020-01-14T14:36:22Z</time>
      </trkpt>
      <trkpt lat="43.53838" lon="5.50876">
        <ele>353</ele>
        <time>2020-01-14T14:36:37Z</time>
      </trkpt>
      <trkpt lat="43.53846" lon="5.50869">
        <ele>351</ele>
        <time>2020-01-14T14:37:31Z</time>
      </trkpt>
      <trkpt lat="43.53854" lon="5.50863">
        <ele>343</ele>
        <time>2020-01-14T14:37:46Z</time>
      </trkpt>
      <trkpt lat="43.53863" lon="5.50857">
        <ele>339</ele>
        <time>2020-01-14T14:38:02Z</time>
      </trkpt>
      <trkpt lat="43.53873" lon="5.50854">
        <ele>339</ele>
        <time>2020-01-14T14:38:15Z</time>
      </trkpt>
      <trkpt lat="43.53882" lon="5.50855">
        <ele>342</ele>
        <time>2020-01-14T14:38:23Z</time>
      </trkpt>
      <trkpt lat="43.5389" lon="5.50849">
        <ele>344</ele>
        <time>2020-01-14T14:38:33Z</time>
      </trkpt>
      <trkpt lat="43.53899" lon="5.50842">
        <ele>344</ele>
        <time>2020-01-14T14:38:45Z</time>
      </trkpt>
      <trkpt lat="43.53906" lon="5.50833">
        <ele>347</ele>
        <time>2020-01-14T14:38:55Z</time>
      </trkpt>
      <trkpt lat="43.53912" lon="5.50823">
        <ele>353</ele>
        <time>2020-01-14T14:39:06Z</time>
      </trkpt>
      <trkpt lat="43.53916" lon="5.50812">
        <ele>356</ele>
        <time>2020-01-14T14:39:17Z</time>
      </trkpt>
      <trkpt lat="43.53923" lon="5.50802">
        <ele>360</ele>
        <time>2020-01-14T14:39:28Z</time>
      </trkpt>
      <trkpt lat="43.53932" lon="5.50795">
        <ele>360</ele>
        <time>2020-01-14T14:39:41Z</time>
      </trkpt>
      <trkpt lat="43.5394" lon="5.50789">
        <ele>357</ele>
        <time>2020-01-14T14:39:52Z</time>
      </trkpt>
      <trkpt lat="43.53947" lon="5.5078">
        <ele>356</ele>
        <time>2020-01-14T14:40:01Z</time>
      </trkpt>
      <trkpt lat="43.53954" lon="5.50771">
        <ele>356</ele>
        <time>2020-01-14T14:40:11Z</time>
      </trkpt>
      <trkpt lat="43.53962" lon="5.50763">
        <ele>357</ele>
        <time>2020-01-14T14:40:23Z</time>
      </trkpt>
      <trkpt lat="43.53971" lon="5.50761">
        <ele>359</ele>
        <time>2020-01-14T14:40:33Z</time>
      </trkpt>
      <trkpt lat="43.53981" lon="5.50757">
        <ele>362</ele>
        <time>2020-01-14T14:40:45Z</time>
      </trkpt>
      <trkpt lat="43.5399" lon="5.50758">
        <ele>358</ele>
        <time>2020-01-14T14:42:07Z</time>
      </trkpt>
      <trkpt lat="43.53999" lon="5.50761">
        <ele>357</ele>
        <time>2020-01-14T14:42:14Z</time>
      </trkpt>
      <trkpt lat="43.54008" lon="5.50765">
        <ele>357</ele>
        <time>2020-01-14T14:42:22Z</time>
      </trkpt>
      <trkpt lat="43.54018" lon="5.50767">
        <ele>358</ele>
        <time>2020-01-14T14:42:33Z</time>
      </trkpt>
      <trkpt lat="43.54026" lon="5.50774">
        <ele>359</ele>
        <time>2020-01-14T14:42:41Z</time>
      </trkpt>
      <trkpt lat="43.54035" lon="5.50779">
        <ele>360</ele>
        <time>2020-01-14T14:42:52Z</time>
      </trkpt>
      <trkpt lat="43.54042" lon="5.50785">
        <ele>361</ele>
        <time>2020-01-14T14:43:02Z</time>
      </trkpt>
      <trkpt lat="43.54051" lon="5.50791">
        <ele>362</ele>
        <time>2020-01-14T14:43:14Z</time>
      </trkpt>
      <trkpt lat="43.54059" lon="5.50798">
        <ele>363</ele>
        <time>2020-01-14T14:43:26Z</time>
      </trkpt>
      <trkpt lat="43.54067" lon="5.50805">
        <ele>363</ele>
        <time>2020-01-14T14:43:36Z</time>
      </trkpt>
      <trkpt lat="43.54073" lon="5.50813">
        <ele>363</ele>
        <time>2020-01-14T14:43:46Z</time>
      </trkpt>
      <trkpt lat="43.5408" lon="5.50821">
        <ele>365</ele>
        <time>2020-01-14T14:43:56Z</time>
      </trkpt>
      <trkpt lat="43.54088" lon="5.50828">
        <ele>364</ele>
        <time>2020-01-14T14:44:06Z</time>
      </trkpt>
      <trkpt lat="43.54096" lon="5.50835">
        <ele>363</ele>
        <time>2020-01-14T14:44:17Z</time>
      </trkpt>
      <trkpt lat="43.54103" lon="5.50844">
        <ele>363</ele>
        <time>2020-01-14T14:44:28Z</time>
      </trkpt>
      <trkpt lat="43.54107" lon="5.50855">
        <ele>361</ele>
        <time>2020-01-14T14:44:37Z</time>
      </trkpt>
      <trkpt lat="43.54112" lon="5.50866">
        <ele>362</ele>
        <time>2020-01-14T14:44:48Z</time>
      </trkpt>
      <trkpt lat="43.54115" lon="5.50879">
        <ele>364</ele>
        <time>2020-01-14T14:45:00Z</time>
      </trkpt>
      <trkpt lat="43.54119" lon="5.50892">
        <ele>366</ele>
        <time>2020-01-14T14:45:09Z</time>
      </trkpt>
      <trkpt lat="43.54125" lon="5.50901">
        <ele>365</ele>
        <time>2020-01-14T14:45:22Z</time>
      </trkpt>
      <trkpt lat="43.54133" lon="5.50908">
        <ele>363</ele>
        <time>2020-01-14T14:45:32Z</time>
      </trkpt>
      <trkpt lat="43.54142" lon="5.50911">
        <ele>362</ele>
        <time>2020-01-14T14:45:42Z</time>
      </trkpt>
      <trkpt lat="43.54151" lon="5.50915">
        <ele>362</ele>
        <time>2020-01-14T14:45:52Z</time>
      </trkpt>
      <trkpt lat="43.54159" lon="5.50921">
        <ele>362</ele>
        <time>2020-01-14T14:46:01Z</time>
      </trkpt>
      <trkpt lat="43.54165" lon="5.50931">
        <ele>360</ele>
        <time>2020-01-14T14:46:13Z</time>
      </trkpt>
      <trkpt lat="43.5417" lon="5.50943">
        <ele>362</ele>
        <time>2020-01-14T14:46:24Z</time>
      </trkpt>
      <trkpt lat="43.54174" lon="5.50954">
        <ele>364</ele>
        <time>2020-01-14T14:46:33Z</time>
      </trkpt>
      <trkpt lat="43.5418" lon="5.50965">
        <ele>365</ele>
        <time>2020-01-14T14:46:43Z</time>
      </trkpt>
      <trkpt lat="43.54185" lon="5.50977">
        <ele>366</ele>
        <time>2020-01-14T14:46:52Z</time>
      </trkpt>
      <trkpt lat="43.54189" lon="5.50989">
        <ele>364</ele>
        <time>2020-01-14T14:47:02Z</time>
      </trkpt>
      <trkpt lat="43.54195" lon="5.51">
        <ele>365</ele>
        <time>2020-01-14T14:47:12Z</time>
      </trkpt>
      <trkpt lat="43.542" lon="5.51011">
        <ele>365</ele>
        <time>2020-01-14T14:47:21Z</time>
      </trkpt>
      <trkpt lat="43.54206" lon="5.51021">
        <ele>365</ele>
        <time>2020-01-14T14:47:31Z</time>
      </trkpt>
      <trkpt lat="43.54212" lon="5.51032">
        <ele>365</ele>
        <time>2020-01-14T14:47:40Z</time>
      </trkpt>
      <trkpt lat="43.54219" lon="5.51041">
        <ele>368</ele>
        <time>2020-01-14T14:47:49Z</time>
      </trkpt>
      <trkpt lat="43.54226" lon="5.5105">
        <ele>366</ele>
        <time>2020-01-14T14:47:58Z</time>
      </trkpt>
      <trkpt lat="43.54231" lon="5.51061">
        <ele>365</ele>
        <time>2020-01-14T14:48:08Z</time>
      </trkpt>
      <trkpt lat="43.54238" lon="5.5107">
        <ele>366</ele>
        <time>2020-01-14T14:48:17Z</time>
      </trkpt>
      <trkpt lat="43.54245" lon="5.5108">
        <ele>370</ele>
        <time>2020-01-14T14:48:29Z</time>
      </trkpt>
      <trkpt lat="43.54251" lon="5.5109">
        <ele>370</ele>
        <time>2020-01-14T14:48:41Z</time>
      </trkpt>
      <trkpt lat="43.54258" lon="5.51099">
        <ele>368</ele>
        <time>2020-01-14T14:48:53Z</time>
      </trkpt>
      <trkpt lat="43.54263" lon="5.51109">
        <ele>367</ele>
        <time>2020-01-14T14:49:04Z</time>
      </trkpt>
      <trkpt lat="43.54268" lon="5.5112">
        <ele>367</ele>
        <time>2020-01-14T14:49:14Z</time>
      </trkpt>
      <trkpt lat="43.54269" lon="5.51132">
        <ele>369</ele>
        <time>2020-01-14T14:49:26Z</time>
      </trkpt>
      <trkpt lat="43.54273" lon="5.51144">
        <ele>364</ele>
        <time>2020-01-14T14:49:38Z</time>
      </trkpt>
      <trkpt lat="43.54276" lon="5.51157">
        <ele>365</ele>
        <time>2020-01-14T14:49:50Z</time>
      </trkpt>
      <trkpt lat="43.54284" lon="5.51162">
        <ele>369</ele>
        <time>2020-01-14T14:50:01Z</time>
      </trkpt>
      <trkpt lat="43.54293" lon="5.51161">
        <ele>371</ele>
        <time>2020-01-14T14:50:12Z</time>
      </trkpt>
      <trkpt lat="43.54302" lon="5.51164">
        <ele>368</ele>
        <time>2020-01-14T14:50:23Z</time>
      </trkpt>
      <trkpt lat="43.54311" lon="5.51165">
        <ele>366</ele>
        <time>2020-01-14T14:50:34Z</time>
      </trkpt>
      <trkpt lat="43.5432" lon="5.51169">
        <ele>365</ele>
        <time>2020-01-14T14:50:44Z</time>
      </trkpt>
      <trkpt lat="43.5433" lon="5.5117">
        <ele>361</ele>
        <time>2020-01-14T14:50:52Z</time>
      </trkpt>
      <trkpt lat="43.54339" lon="5.51174">
        <ele>361</ele>
        <time>2020-01-14T14:51:00Z</time>
      </trkpt>
      <trkpt lat="43.54348" lon="5.51177">
        <ele>359</ele>
        <time>2020-01-14T14:51:12Z</time>
      </trkpt>
      <trkpt lat="43.54358" lon="5.51179">
        <ele>359</ele>
        <time>2020-01-14T14:51:50Z</time>
      </trkpt>
      <trkpt lat="43.54367" lon="5.51182">
        <ele>363</ele>
        <time>2020-01-14T14:52:04Z</time>
      </trkpt>
      <trkpt lat="43.54375" lon="5.51176">
        <ele>363</ele>
        <time>2020-01-14T14:52:20Z</time>
      </trkpt>
      <trkpt lat="43.54382" lon="5.51167">
        <ele>361</ele>
        <time>2020-01-14T14:52:32Z</time>
      </trkpt>
      <trkpt lat="43.54387" lon="5.51156">
        <ele>358</ele>
        <time>2020-01-14T14:52:42Z</time>
      </trkpt>
      <trkpt lat="43.54397" lon="5.51154">
        <ele>358</ele>
        <time>2020-01-14T14:52:57Z</time>
      </trkpt>
      <trkpt lat="43.54404" lon="5.51163">
        <ele>358</ele>
        <time>2020-01-14T14:53:07Z</time>
      </trkpt>
      <trkpt lat="43.54409" lon="5.51173">
        <ele>359</ele>
        <time>2020-01-14T14:53:17Z</time>
      </trkpt>
      <trkpt lat="43.54414" lon="5.51183">
        <ele>359</ele>
        <time>2020-01-14T14:53:27Z</time>
      </trkpt>
      <trkpt lat="43.5442" lon="5.51193">
        <ele>360</ele>
        <time>2020-01-14T14:53:36Z</time>
      </trkpt>
      <trkpt lat="43.54426" lon="5.51204">
        <ele>360</ele>
        <time>2020-01-14T14:53:47Z</time>
      </trkpt>
      <trkpt lat="43.54431" lon="5.51214">
        <ele>359</ele>
        <time>2020-01-14T14:53:57Z</time>
      </trkpt>
      <trkpt lat="43.54436" lon="5.51225">
        <ele>360</ele>
        <time>2020-01-14T14:54:06Z</time>
      </trkpt>
      <trkpt lat="43.54442" lon="5.51235">
        <ele>360</ele>
        <time>2020-01-14T14:54:16Z</time>
      </trkpt>
      <trkpt lat="43.54448" lon="5.51245">
        <ele>361</ele>
        <time>2020-01-14T14:54:26Z</time>
      </trkpt>
      <trkpt lat="43.54453" lon="5.51255">
        <ele>361</ele>
        <time>2020-01-14T14:54:35Z</time>
      </trkpt>
      <trkpt lat="43.54459" lon="5.51267">
        <ele>362</ele>
        <time>2020-01-14T14:54:47Z</time>
      </trkpt>
      <trkpt lat="43.54464" lon="5.51277">
        <ele>364</ele>
        <time>2020-01-14T14:54:56Z</time>
      </trkpt>
      <trkpt lat="43.54469" lon="5.51287">
        <ele>365</ele>
        <time>2020-01-14T14:55:04Z</time>
      </trkpt>
      <trkpt lat="43.54476" lon="5.51296">
        <ele>367</ele>
        <time>2020-01-14T14:55:14Z</time>
      </trkpt>
      <trkpt lat="43.54481" lon="5.51308">
        <ele>368</ele>
        <time>2020-01-14T14:55:23Z</time>
      </trkpt>
      <trkpt lat="43.54487" lon="5.51318">
        <ele>369</ele>
        <time>2020-01-14T14:55:32Z</time>
      </trkpt>
      <trkpt lat="43.54491" lon="5.5133">
        <ele>368</ele>
        <time>2020-01-14T14:55:43Z</time>
      </trkpt>
      <trkpt lat="43.54492" lon="5.51343">
        <ele>368</ele>
        <time>2020-01-14T14:55:51Z</time>
      </trkpt>
      <trkpt lat="43.54495" lon="5.51354">
        <ele>370</ele>
        <time>2020-01-14T14:56:00Z</time>
      </trkpt>
      <trkpt lat="43.54499" lon="5.51366">
        <ele>370</ele>
        <time>2020-01-14T14:56:09Z</time>
      </trkpt>
      <trkpt lat="43.54503" lon="5.51377">
        <ele>371</ele>
        <time>2020-01-14T14:56:18Z</time>
      </trkpt>
      <trkpt lat="43.54508" lon="5.51388">
        <ele>372</ele>
        <time>2020-01-14T14:56:27Z</time>
      </trkpt>
      <trkpt lat="43.54514" lon="5.51398">
        <ele>373</ele>
        <time>2020-01-14T14:56:36Z</time>
      </trkpt>
      <trkpt lat="43.54519" lon="5.5141">
        <ele>374</ele>
        <time>2020-01-14T14:56:46Z</time>
      </trkpt>
      <trkpt lat="43.54525" lon="5.51421">
        <ele>375</ele>
        <time>2020-01-14T14:56:56Z</time>
      </trkpt>
      <trkpt lat="43.54532" lon="5.51427">
        <ele>374</ele>
        <time>2020-01-14T14:57:07Z</time>
      </trkpt>
      <trkpt lat="43.54539" lon="5.51436">
        <ele>374</ele>
        <time>2020-01-14T14:57:18Z</time>
      </trkpt>
      <trkpt lat="43.54544" lon="5.51448">
        <ele>371</ele>
        <time>2020-01-14T14:57:30Z</time>
      </trkpt>
      <trkpt lat="43.54552" lon="5.51455">
        <ele>373</ele>
        <time>2020-01-14T14:59:19Z</time>
      </trkpt>
      <trkpt lat="43.54559" lon="5.51465">
        <ele>373</ele>
        <time>2020-01-14T14:59:29Z</time>
      </trkpt>
      <trkpt lat="43.54564" lon="5.51476">
        <ele>373</ele>
        <time>2020-01-14T14:59:38Z</time>
      </trkpt>
      <trkpt lat="43.5457" lon="5.51487">
        <ele>372</ele>
        <time>2020-01-14T14:59:48Z</time>
      </trkpt>
      <trkpt lat="43.54575" lon="5.51497">
        <ele>373</ele>
        <time>2020-01-14T14:59:58Z</time>
      </trkpt>
      <trkpt lat="43.5458" lon="5.51507">
        <ele>372</ele>
        <time>2020-01-14T15:00:17Z</time>
      </trkpt>
      <trkpt lat="43.54582" lon="5.51521">
        <ele>373</ele>
        <time>2020-01-14T15:00:27Z</time>
      </trkpt>
      <trkpt lat="43.54586" lon="5.51533">
        <ele>373</ele>
        <time>2020-01-14T15:00:37Z</time>
      </trkpt>
      <trkpt lat="43.5459" lon="5.51544">
        <ele>372</ele>
        <time>2020-01-14T15:00:46Z</time>
      </trkpt>
      <trkpt lat="43.54595" lon="5.51555">
        <ele>369</ele>
        <time>2020-01-14T15:00:54Z</time>
      </trkpt>
      <trkpt lat="43.54598" lon="5.51568">
        <ele>368</ele>
        <time>2020-01-14T15:01:07Z</time>
      </trkpt>
      <trkpt lat="43.54601" lon="5.5158">
        <ele>367</ele>
        <time>2020-01-14T15:01:19Z</time>
      </trkpt>
      <trkpt lat="43.54603" lon="5.51592">
        <ele>368</ele>
        <time>2020-01-14T15:01:29Z</time>
      </trkpt>
      <trkpt lat="43.54605" lon="5.51606">
        <ele>367</ele>
        <time>2020-01-14T15:01:41Z</time>
      </trkpt>
      <trkpt lat="43.54609" lon="5.51618">
        <ele>370</ele>
        <time>2020-01-14T15:01:49Z</time>
      </trkpt>
      <trkpt lat="43.54609" lon="5.51631">
        <ele>373</ele>
        <time>2020-01-14T15:02:00Z</time>
      </trkpt>
      <trkpt lat="43.5461" lon="5.51645">
        <ele>373</ele>
        <time>2020-01-14T15:02:09Z</time>
      </trkpt>
      <trkpt lat="43.54609" lon="5.51658">
        <ele>376</ele>
        <time>2020-01-14T15:02:22Z</time>
      </trkpt>
      <trkpt lat="43.54608" lon="5.51672">
        <ele>378</ele>
        <time>2020-01-14T15:02:32Z</time>
      </trkpt>
      <trkpt lat="43.54608" lon="5.51685">
        <ele>381</ele>
        <time>2020-01-14T15:02:45Z</time>
      </trkpt>
      <trkpt lat="43.54608" lon="5.51699">
        <ele>382</ele>
        <time>2020-01-14T15:02:55Z</time>
      </trkpt>
      <trkpt lat="43.54608" lon="5.51712">
        <ele>381</ele>
        <time>2020-01-14T15:03:04Z</time>
      </trkpt>
      <trkpt lat="43.5461" lon="5.51724">
        <ele>382</ele>
        <time>2020-01-14T15:03:14Z</time>
      </trkpt>
      <trkpt lat="43.54608" lon="5.51738">
        <ele>384</ele>
        <time>2020-01-14T15:03:26Z</time>
      </trkpt>
      <trkpt lat="43.54609" lon="5.51751">
        <ele>382</ele>
        <time>2020-01-14T15:03:35Z</time>
      </trkpt>
      <trkpt lat="43.54609" lon="5.51764">
        <ele>382</ele>
        <time>2020-01-14T15:03:46Z</time>
      </trkpt>
      <trkpt lat="43.54607" lon="5.51778">
        <ele>381</ele>
        <time>2020-01-14T15:03:55Z</time>
      </trkpt>
      <trkpt lat="43.54606" lon="5.51791">
        <ele>381</ele>
        <time>2020-01-14T15:04:04Z</time>
      </trkpt>
      <trkpt lat="43.54605" lon="5.51805">
        <ele>380</ele>
        <time>2020-01-14T15:04:11Z</time>
      </trkpt>
      <trkpt lat="43.54605" lon="5.51818">
        <ele>382</ele>
        <time>2020-01-14T15:04:21Z</time>
      </trkpt>
      <trkpt lat="43.54607" lon="5.5183">
        <ele>379</ele>
        <time>2020-01-14T15:04:33Z</time>
      </trkpt>
      <trkpt lat="43.54604" lon="5.51842">
        <ele>380</ele>
        <time>2020-01-14T15:05:44Z</time>
      </trkpt>
      <trkpt lat="43.54606" lon="5.51856">
        <ele>379</ele>
        <time>2020-01-14T15:05:53Z</time>
      </trkpt>
      <trkpt lat="43.54607" lon="5.51869">
        <ele>379</ele>
        <time>2020-01-14T15:06:03Z</time>
      </trkpt>
      <trkpt lat="43.54608" lon="5.51881">
        <ele>380</ele>
        <time>2020-01-14T15:06:14Z</time>
      </trkpt>
      <trkpt lat="43.5461" lon="5.51894">
        <ele>381</ele>
        <time>2020-01-14T15:06:24Z</time>
      </trkpt>
      <trkpt lat="43.54609" lon="5.51906">
        <ele>381</ele>
        <time>2020-01-14T15:06:35Z</time>
      </trkpt>
      <trkpt lat="43.54608" lon="5.51919">
        <ele>381</ele>
        <time>2020-01-14T15:06:45Z</time>
      </trkpt>
      <trkpt lat="43.54608" lon="5.51932">
        <ele>383</ele>
        <time>2020-01-14T15:06:56Z</time>
      </trkpt>
      <trkpt lat="43.54607" lon="5.51945">
        <ele>383</ele>
        <time>2020-01-14T15:07:06Z</time>
      </trkpt>
      <trkpt lat="43.54608" lon="5.51957">
        <ele>384</ele>
        <time>2020-01-14T15:07:16Z</time>
      </trkpt>
      <trkpt lat="43.54606" lon="5.51969">
        <ele>385</ele>
        <time>2020-01-14T15:07:27Z</time>
      </trkpt>
      <trkpt lat="43.54604" lon="5.51983">
        <ele>385</ele>
        <time>2020-01-14T15:07:37Z</time>
      </trkpt>
      <trkpt lat="43.54602" lon="5.51996">
        <ele>386</ele>
        <time>2020-01-14T15:07:47Z</time>
      </trkpt>
      <trkpt lat="43.54604" lon="5.52008">
        <ele>387</ele>
        <time>2020-01-14T15:08:43Z</time>
      </trkpt>
      <trkpt lat="43.54608" lon="5.5202">
        <ele>390</ele>
        <time>2020-01-14T15:08:57Z</time>
      </trkpt>
    </trkseg>
  </trk>
</gpx>